Clark, New Jersey
Current Conditions -  °F | °C
As of 9:35 AM on Thursday 27 Nov 2014 (Local Time) from KLDJ Reporting Station
Overcast Overcast  
Wind Chill: 37°   Ceiling: 3900
Heat Index: 40°   Visibility: 10mi
Dew Point: 35°   Wind: 5mph
Humidity: 80%   Direction: 290°WNW
Pressure: 30.02"   Gusts: NA
Location:  40.62°N, 74.31°W
Report Text: KLDJ 271435Z AUTO 29004KT 10SM SCT014 BKN039 OVC047 05/02 A3002 RMK AO2 T00460015
Loading
Personal Weather Stations






























Interactive Weather Map New forecast layout! Learn more

10-Day Weather Forecast

Advertisements
Track Severe Weather on mobile